Latest Weather Observations for Aireys Inlet

IDV60801

Issued at 9:42 pm EST Friday 12 July 2024 (issued every 10 minutes, with the page automatically refreshed every 10 minutes)

About weather observations | Map of weather stations | Latest weather observations for VIC | Other Formats
Station Details ID: 090180 Name: AIREYS INLET Lat: -38.46 Lon: 144.09 Height: 105.0 m
Data from the previous 72 hours. | See also: Recent months at Aireys Inlet
Date/Time
EST
Temp
°C
App
Temp
°C
Dew
Point
°C
Rel
Hum
%
Delta-T
°C
Wind Press
QNH
hPa
Press
MSL
hPa
Rain since
9am
mm
Dir  Spd
km/h
Gust
km/h
Spd
kts
Gust
kts
12/09:30pm 10.1 6.5 6.6 79 1.6 NW 15 20 8 11 - - 0.0
12/09:00pm 10.6 7.3 6.4 75 2.0 NW 13 20 7 11 - - 0.0
12/08:30pm 10.8 7.5 6.4 74 2.1 NW 13 19 7 10 - - 0.0
12/08:00pm 11.5 7.4 6.4 71 2.4 NW 17 24 9 13 - - 0.0
12/07:30pm 10.7 7.8 6.3 74 2.1 NW 11 17 6 9 - - 0.0
12/07:00pm 10.9 7.2 6.5 74 2.1 NW 15 20 8 11 - - 0.0
12/06:30pm 11.3 8.0 6.6 73 2.2 NW 13 19 7 10 - - 0.0
12/06:00pm 11.2 8.7 6.5 73 2.2 NNW 9 15 5 8 - - 0.0
12/05:30pm 11.8 9.7 6.7 71 2.4 NW 7 13 4 7 - - 0.0
12/05:00pm 12.3 9.8 6.6 68 2.7 NW 9 17 5 9 - - 0.0
12/04:30pm 13.2 9.9 6.5 64 3.2 WNW 13 20 7 11 - - 0.0
12/04:00pm 13.7 10.9 7.0 64 3.3 WNW 11 17 6 9 - - 0.0
12/03:30pm 13.0 10.2 7.0 67 2.9 WNW 11 24 6 13 - - 0.0
12/03:00pm 14.1 12.2 7.4 64 3.3 WNW 7 15 4 8 - - 0.0
12/02:30pm 13.5 9.7 7.5 67 3.0 NW 17 28 9 15 - - 0.0
12/02:00pm 12.9 8.0 6.9 67 2.9 WNW 22 39 12 21 - - 0.0
12/01:30pm 12.7 8.7 6.7 67 2.9 W 17 32 9 17 - - 0.0
12/01:00pm 12.5 9.8 7.4 71 2.5 NNW 11 19 6 10 - - 0.0
12/12:30pm 11.5 7.6 7.2 75 2.1 WNW 17 28 9 15 - - 0.0
12/12:00pm 11.6 7.8 7.5 76 2.0 NW 17 24 9 13 - - 0.0
12/11:30am 12.0 8.2 7.5 74 2.2 WNW 17 26 9 14 - - 0.0
12/11:00am 11.6 7.3 6.9 73 2.3 NW 19 28 10 15 - - 0.0
12/10:30am 11.2 8.6 7.7 79 1.7 WNW 11 20 6 11 - - 0.0
12/10:00am 10.0 8.4 8.1 88 0.9 NW 6 9 3 5 - - 0.0
12/09:30am 9.0 7.2 7.9 93 0.5 NNW 7 13 4 7 - - 0.0
12/09:00am 8.3 4.9 7.5 95 0.4 NW 15 22 8 12 - - 2.4
12/08:30am 7.9 5.1 7.1 95 0.4 WNW 11 15 6 8 - - 2.4
12/08:00am 7.8 4.3 7.1 95 0.3 NW 15 22 8 12 - - 2.4
12/07:30am 8.0 4.9 7.2 95 0.4 NW 13 24 7 13 - - 2.4
12/07:00am 8.1 5.0 7.3 95 0.4 NW 13 17 7 9 - - 2.4
12/06:30am 8.2 5.5 7.4 95 0.4 NW 11 19 6 10 - - 2.4
12/06:00am 8.4 4.2 7.6 95 0.4 NW 19 22 10 12 - - 2.4
12/05:30am 8.7 5.3 7.8 94 0.4 WNW 15 20 8 11 - - 2.4
12/05:00am 8.6 4.3 7.8 95 0.4 WNW 20 30 11 16 - - 2.4
12/04:30am 8.6 4.5 7.8 95 0.4 WNW 19 26 10 14 - - 2.4
12/04:00am 8.8 3.8 8.0 95 0.4 WNW 24 30 13 16 - - 2.4
12/03:30am 8.9 5.6 8.0 94 0.4 WNW 15 20 8 11 - - 2.4
12/03:00am 9.2 5.5 8.1 93 0.5 WNW 17 24 9 13 - - 2.4
12/02:30am 9.4 5.4 8.2 92 0.6 WNW 19 28 10 15 - - 2.4
12/02:00am 9.6 5.1 8.5 93 0.5 WNW 22 32 12 17 - - 2.4
12/01:30am 9.6 6.0 8.5 93 0.5 WNW 17 22 9 12 - - 2.4
12/01:00am 9.6 8.9 8.4 92 0.6 NW 2 4 1 2 - - 2.4
12/12:30am 10.0 6.5 8.8 92 0.6 WNW 17 22 9 12 - - 2.4
12/12:00am 10.0 6.2 8.9 93 0.5 NW 19 24 10 13 - - 2.4
 
Date/Time
EST
Temp
°C
App
Temp
°C
Dew
Point
°C
Rel
Hum
%
Delta-T
°C
Wind Press
QNH
hPa
Press
MSL
hPa
Rain since
9am
mm
Dir  Spd
km/h
Gust
km/h
Spd
kts
Gust
kts
11/11:30pm 10.2 7.9 9.0 92 0.6 NW 11 17 6 9 - - 2.4
11/11:00pm 10.5 8.2 9.1 91 0.7 WNW 11 15 6 8 - - 2.4
11/10:30pm 10.4 7.8 9.2 92 0.6 NW 13 24 7 13 - - 2.4
11/10:00pm 10.5 6.6 9.3 92 0.6 NW 20 30 11 16 - - 2.4
11/09:30pm 10.5 6.3 9.6 94 0.5 NW 22 35 12 19 - - 2.4
11/09:00pm 10.5 5.5 9.6 94 0.5 NW 26 39 14 21 - - 2.4
11/08:30pm 10.5 6.3 9.6 94 0.5 NNW 22 37 12 20 - - 1.8
11/08:00pm 10.6 4.4 9.4 92 0.6 NNW 32 52 17 28 - - 1.6
11/07:36pm 10.6 5.1 9.2 91 0.7 N 28 46 15 25 - - 1.2
11/07:30pm 10.5 5.4 9.1 91 0.7 N 26 46 14 25 - - 1.2
11/07:00pm 10.6 4.2 8.7 88 0.9 N 32 50 17 27 - - 1.0
11/06:30pm 11.1 4.4 8.1 82 1.5 N 33 54 18 29 - - 0.8
11/06:00pm 11.3 4.8 8.0 80 1.6 N 32 52 17 28 - - 0.8
11/05:32pm 11.5 5.6 7.4 76 2.0 N 28 46 15 25 - - 0.8
11/05:30pm 11.5 5.5 7.2 75 2.1 N 28 44 15 24 - - 0.8
11/05:00pm 11.1 4.3 7.6 79 1.7 N 33 56 18 30 - - 0.8
11/04:31pm 11.4 4.7 7.3 76 2.0 N 32 50 17 27 - - 0.4
11/04:30pm 11.5 4.6 7.2 75 2.1 N 33 50 18 27 - - 0.4
11/04:05pm 11.3 5.0 7.6 78 1.8 N 30 54 16 29 - - 0.4
11/04:00pm 11.3 5.4 7.6 78 1.8 N 28 46 15 25 - - 0.2
11/03:38pm 13.0 6.9 6.4 64 3.2 N 28 54 15 29 - - 0.0
11/03:30pm 13.2 7.1 6.5 64 3.2 N 28 43 15 23 - - 0.0
11/03:00pm 13.5 7.8 6.8 64 3.3 N 26 46 14 25 - - 0.0
11/02:44pm 13.4 7.3 6.5 63 3.3 N 28 56 15 30 - - 0.0
11/02:30pm 13.5 8.2 6.6 63 3.3 N 24 46 13 25 - - 0.0
11/02:15pm 13.8 7.7 6.4 61 3.6 N 28 52 15 28 - - 0.0
11/02:00pm 13.3 8.8 7.1 66 3.0 NNE 20 39 11 21 - - 0.0
11/01:30pm 12.8 7.5 7.0 68 2.8 NNE 24 44 13 24 - - 0.0
11/01:00pm 13.4 8.1 6.7 64 3.2 NNE 24 41 13 22 - - 0.0
11/12:30pm 13.4 8.8 6.7 64 3.2 NNE 20 35 11 19 - - 0.0
11/12:00pm 12.6 6.5 6.6 67 2.9 N 28 50 15 27 - - 0.0
11/11:30am 12.3 5.2 6.6 68 2.7 N 33 63 18 34 - - 0.0
11/11:13am 12.3 6.2 6.8 69 2.6 N 28 54 15 29 - - 0.0
11/11:00am 11.7 8.2 7.2 74 2.2 N 15 33 8 18 - - 0.0
11/10:30am 10.5 6.9 6.8 78 1.8 NNE 15 28 8 15 - - 0.0
11/10:00am 10.4 6.3 6.4 76 1.9 NNE 17 26 9 14 - - 0.0
11/09:30am 10.4 6.0 6.4 76 1.9 NNE 19 32 10 17 - - 0.0
11/09:00am 9.9 5.8 6.1 77 1.8 NNE 17 26 9 14 - - 0.0
11/08:30am 10.7 6.0 6.1 73 2.2 N 20 30 11 16 - - 0.0
11/08:00am 10.9 5.4 6.1 72 2.2 N 24 35 13 19 - - 0.0
11/07:30am 10.4 5.9 6.0 74 2.0 N 19 28 10 15 - - 0.0
11/07:00am 10.0 6.2 6.0 76 1.9 N 15 24 8 13 - - 0.0
11/06:30am 8.7 6.0 5.6 81 1.4 NNE 9 15 5 8 - - 0.0
11/06:00am 9.6 6.6 6.0 78 1.7 N 11 19 6 10 - - 0.0
11/05:30am 8.8 5.1 6.1 83 1.2 N 15 22 8 12 - - 0.0
11/05:00am 8.3 5.2 5.6 83 1.2 NNE 11 17 6 9 - - 0.0
11/04:30am 8.8 5.0 5.9 82 1.3 NNE 15 22 8 12 - - 0.0
11/04:00am 8.8 4.6 5.5 80 1.5 N 17 24 9 13 - - 0.0
11/03:30am 8.9 5.1 5.6 80 1.5 N 15 26 8 14 - - 0.0
11/03:00am 8.8 4.6 5.7 81 1.4 N 17 26 9 14 - - 0.0
11/02:30am 9.3 4.5 5.7 78 1.6 N 20 30 11 16 - - 0.0
11/02:00am 9.5 4.4 5.9 78 1.7 N 22 33 12 18 - - 0.0
11/01:30am 9.9 4.8 5.9 76 1.9 NNW 22 37 12 20 - - 0.0
11/01:00am 9.9 5.1 5.7 75 1.9 NNW 20 33 11 18 - - 0.0
11/12:30am 10.0 5.2 5.6 74 2.0 NNW 20 41 11 22 - - 0.0
11/12:00am 10.2 4.6 5.6 73 2.1 NNW 24 43 13 23 - - 0.0
 
Date/Time
EST
Temp
°C
App
Temp
°C
Dew
Point
°C
Rel
Hum
%
Delta-T
°C
Wind Press
QNH
hPa
Press
MSL
hPa
Rain since
9am
mm
Dir  Spd
km/h
Gust
km/h
Spd
kts
Gust
kts
10/11:47pm 10.4 4.1 5.8 73 2.1 NNW 28 46 15 25 - - 0.0
10/11:30pm 10.1 4.9 5.3 72 2.2 NNW 22 41 12 22 - - 0.0
10/11:00pm 9.6 4.8 4.4 70 2.3 NNW 19 30 10 16 - - 0.0
10/10:30pm 9.3 4.3 4.7 73 2.1 NNW 20 33 11 18 - - 0.0
10/10:00pm 9.5 4.2 4.9 73 2.1 NNW 22 37 12 20 - - 0.0
10/09:30pm 9.8 4.1 5.0 72 2.2 NW 24 39 13 21 - - 0.0
10/09:00pm 10.0 4.3 5.0 71 2.3 NW 24 35 13 19 - - 0.0
10/08:30pm 9.1 5.9 5.1 76 1.8 N 11 28 6 15 - - 0.0
10/08:00pm 7.5 5.1 4.5 81 1.3 ENE 6 7 3 4 - - 0.0
10/07:30pm 8.3 5.9 4.1 75 1.8 NNE 6 9 3 5 - - 0.0
10/07:00pm 9.0 5.3 4.6 74 2.0 NNW 13 20 7 11 - - 0.0
10/06:30pm 9.0 6.1 4.8 75 1.9 N 9 17 5 9 - - 0.0
10/06:00pm 9.1 6.8 4.9 75 1.9 NNE 6 11 3 6 - - 0.0
10/05:30pm 9.8 6.2 5.2 73 2.1 N 13 19 7 10 - - 0.0
10/05:00pm 10.2 7.1 5.4 72 2.2 NNW 11 17 6 9 - - 0.0
10/04:30pm 10.9 8.2 5.4 69 2.5 NNW 9 17 5 9 - - 0.0
10/04:00pm 12.2 8.8 6.0 66 2.9 NW 13 20 7 11 - - 0.0
10/03:30pm 12.9 10.0 6.5 65 3.1 NNW 11 19 6 10 - - 0.0
10/03:00pm 13.8 10.9 6.7 62 3.4 NNW 11 17 6 9 - - 0.0
10/02:30pm 13.7 11.1 6.3 61 3.6 NW 9 17 5 9 - - 0.0
10/02:00pm 13.8 11.8 6.4 61 3.6 WNW 6 13 3 7 - - 0.0
10/01:30pm 13.1 9.4 6.2 63 3.3 W 15 24 8 13 - - 0.0
10/01:00pm 12.4 8.3 6.0 65 3.0 WNW 17 24 9 13 - - 0.0
10/12:30pm 12.4 7.6 5.6 63 3.2 W 20 33 11 18 - - 0.0
10/12:00pm 12.3 8.5 5.9 65 3.0 W 15 26 8 14 - - 0.0
10/11:30am 11.2 7.4 5.7 69 2.6 W 15 20 8 11 - - 0.0
10/11:00am 11.2 8.6 6.3 72 2.3 W 9 17 5 9 - - 0.0
10/10:30am 10.4 6.7 6.2 75 2.0 W 15 20 8 11 - - 0.0
10/10:00am 10.2 7.7 6.4 77 1.8 WNW 9 15 5 8 - - 0.0
10/09:30am 9.6 6.2 5.8 77 1.7 W 13 24 7 13 - - 0.0
10/09:00am 9.3 4.8 5.9 79 1.6 W 19 26 10 14 - - 0.4
10/08:30am 9.1 5.0 6.0 81 1.4 W 17 22 9 12 - - 0.4
10/08:00am 9.0 4.9 6.1 82 1.3 W 17 24 9 13 - - 0.4
10/07:30am 9.4 5.0 6.7 83 1.3 WNW 19 28 10 15 - - 0.4
10/07:00am 9.5 6.0 7.1 85 1.1 WNW 15 22 8 12 - - 0.4
10/06:30am 9.6 6.2 7.7 88 0.9 WNW 15 19 8 10 - - 0.4
10/06:00am 9.6 6.6 7.9 89 0.8 WNW 13 19 7 10 - - 0.4
10/05:30am 9.7 6.8 8.0 89 0.8 WNW 13 17 7 9 - - 0.4
10/05:00am 9.9 7.4 8.2 89 0.8 WNW 11 17 6 9 - - 0.4
10/04:30am 9.9 7.4 8.3 90 0.8 WNW 11 13 6 7 - - 0.4
10/04:00am 10.3 8.6 8.4 88 0.9 WNW 7 9 4 5 - - 0.4
10/03:30am 10.7 8.3 8.8 88 0.9 SW 11 19 6 10 - - 0.4
10/03:00am 10.4 8.4 8.7 89 0.8 W 9 15 5 8 - - 0.4
10/02:30am 10.8 8.6 9.4 91 0.7 SW 11 17 6 9 - - 0.4
10/02:00am 10.8 8.2 9.2 90 0.8 SW 13 24 7 13 - - 0.4
10/01:30am 10.5 7.6 9.6 94 0.5 SW 15 22 8 12 - - 0.4
10/01:00am 10.3 7.7 9.5 95 0.4 WSW 13 20 7 11 - - 0.4
10/12:30am 10.2 7.2 9.4 95 0.4 WSW 15 22 8 12 - - 0.4
10/12:00am 10.6 6.3 9.5 93 0.6 SSW 22 35 12 19 - - 0.4
 
Date/Time
EST
Temp
°C
App
Temp
°C
Dew
Point
°C
Rel
Hum
%
Delta-T
°C
Wind Press
QNH
hPa
Press
MSL
hPa
Rain since
9am
mm
Dir  Spd
km/h
Gust
km/h
Spd
kts
Gust
kts
09/11:30pm 11.0 7.9 8.9 87 1.0 SW 15 20 8 11 - - 0.4
09/11:00pm 10.9 7.4 8.8 87 1.0 WSW 17 26 9 14 - - 0.4
09/10:30pm 10.7 7.3 9.0 89 0.8 WSW 17 26 9 14 - - 0.4
09/10:00pm 10.5 6.8 9.4 93 0.6 WSW 19 24 10 13 - - 0.4

Other formats

Comma delimited format used in spreadsheet applications
http://www.bom.gov.au/fwo/IDV60801/IDV60801.94846.axf

JavaScript Object Notation format (JSON) in row-major order
http://www.bom.gov.au/fwo/IDV60801/IDV60801.94846.json

Data quality

Most of these data are generated automatically and are frequently updated. Quality checks on data are not normally performed. It is possible for incorrect values to appear. Refer to information at About Latest Weather Observations and please check the disclaimer before using these data.